Latest Coastal Weather Observations for Carnarvon

IDW60701

Issued at 1:13 am WST Monday 21 August 2017 (issued every 10 minutes, with the page automatically refreshed every 10 minutes)

About coastal observations | Map of coastal stations | Coastal observations for WA | Marine services | Other Formats
Station Details ID: 006011 Name: CARNARVON AIRPORT Lat: -24.89 Lon: 113.67 Height: 4.0 m
Data from the previous 72 hours. | See also: Recent months at Carnarvon
Date/Time
WST
Temp
°C
Wind Pressure Rain since
9am
mm
Weather Cloud Vis
km
Sea
Height
m
Swell
Dir  Spd
kts
Gust
kts
hPa Trend Height
m
Period
s
Dir
21/01:00am 14.9 SSE 12 14 1018.7 - 0.0 - - 10 - - - -
21/12:30am 15.4 SSE 12 15 1018.8 - 0.0 - - 10 - - - -
21/12:00am 15.4 SSE 11 14 1018.9 - 0.0 - - 10 - - - -
 
Date/Time
WST
Temp
°C
Wind Pressure Rain since
9am
mm
Weather Cloud Vis
km
Sea
Height
m
Swell
Dir  Spd
kts
Gust
kts
hPa Trend Height
m
Period
s
Dir
20/11:30pm 15.6 SSE 11 14 1019.0 - 0.0 - - 10 - - - -
20/11:00pm 16.3 S 10 13 1019.3 - 0.0 - - 10 - - - -
20/10:30pm 16.5 S 12 15 1019.3 - 0.0 - - 10 - - - -
20/10:00pm 16.7 S 15 18 1019.2 - 0.0 - - 10 - - - -
20/09:30pm 16.9 S 15 19 1019.2 - 0.0 - - 10 - - - -
20/09:00pm 17.0 S 16 19 1019.4 - 0.0 - - 10 - - - -
20/08:30pm 17.2 S 14 18 1019.1 - 0.0 - - 10 - - - -
20/08:00pm 17.7 S 13 17 1019.0 - 0.0 - - 10 - - - -
20/07:30pm 17.9 S 14 19 1018.9 - 0.0 - - 10 - - - -
20/07:00pm 18.0 S 15 19 1018.6 - 0.0 - - 10 - - - -
20/06:30pm 18.3 S 16 21 1018.5 - 0.0 - - 10 - - - -
20/06:00pm 18.9 S 18 24 1018.4 - 0.0 - - 10 - - - -
20/05:30pm 19.6 S 20 27 1018.1 - 0.0 - - 10 - - - -
20/05:00pm 20.0 S 21 27 1018.1 - 0.0 - - 10 - - - -
20/04:30pm 20.1 S 22 27 1018.1 - 0.0 - - 10 - - - -
20/04:00pm 20.6 S 22 27 1018.2 - 0.0 - - 10 - - - -
20/03:30pm 20.5 S 22 27 1018.4 - 0.0 - - 10 - - - -
20/03:00pm 20.7 S 20 26 1018.7 - 0.0 - - 10 - - - -
20/02:30pm 20.7 S 21 27 1019.1 - 0.0 - - 10 - - - -
20/02:00pm 19.2 S 21 27 1019.7 - 0.0 - - 10 - - - -
20/01:30pm 19.4 SSW 20 25 1020.0 - 0.0 - - 10 - - - -
20/01:00pm 20.0 S 19 25 1020.5 - 0.0 - - 10 - - - -
20/12:35pm 21.5 SSE 18 28 1021.0 - 0.0 - - 10 - - - -
20/12:30pm 21.4 SSE 18 23 1021.3 - 0.0 - - 10 - - - -
20/12:00pm 20.7 SE 18 24 1022.0 - 0.0 - - 10 - - - -
20/11:30am 19.7 SE 16 24 1022.5 - 0.0 - - 10 - - - -
20/11:00am 19.4 SE 16 24 1023.3 - 0.0 - - 10 - - - -
20/10:30am 18.6 SE 16 22 1023.6 - 0.0 - - 10 - - - -
20/10:00am 17.5 SE 17 22 1024.0 - 0.0 - - 10 - - - -
20/09:30am 16.6 SE 18 23 1024.1 - 0.0 - - 10 - - - -
20/09:00am 16.0 SE 17 22 1024.5 - 0.2 - - 10 - - - -
20/08:30am 14.6 SE 15 20 1024.2 - 0.2 - - 10 - - - -
20/08:00am 13.0 SE 14 17 1024.0 - 0.2 - - 10 - - - -
20/07:30am 11.7 SE 10 14 1023.9 - 0.2 - - 10 - - - -
20/07:00am 10.1 SE 9 11 1023.4 - 0.2 - - 10 - - - -
20/06:30am 9.8 SE 9 10 1023.4 - 0.2 - - 10 - - - -
20/06:00am 10.4 SE 8 10 1023.3 - 0.2 - - 10 - - - -
20/05:30am 10.7 SE 8 10 1023.0 - 0.2 - - 10 - - - -
20/05:00am 11.3 SE 9 12 1022.8 - 0.2 - - 10 - - - -
20/04:30am 11.5 SE 10 13 1022.5 - 0.2 - - 10 - - - -
20/04:00am 11.5 SE 8 11 1022.7 - 0.2 - - 10 - - - -
20/03:30am 12.0 SE 10 13 1022.4 - 0.2 - - 10 - - - -
20/03:00am 12.3 SE 10 13 1022.7 - 0.2 - - 10 - - - -
20/02:30am 12.8 SSE 11 15 1022.9 - 0.2 - - 10 - - - -
20/02:00am 13.2 SE 11 14 1022.9 - 0.2 - - 10 - - - -
20/01:30am 13.7 SE 13 17 1022.6 - 0.2 - - 10 - - - -
20/01:00am 14.2 SSE 15 20 1022.5 - 0.2 - - 10 - - - -
20/12:30am 14.5 SE 12 18 1022.3 - 0.2 - - 10 - - - -
20/12:00am 14.8 SSE 12 15 1022.4 - 0.2 - - 10 - - - -
 
Date/Time
WST
Temp
°C
Wind Pressure Rain since
9am
mm
Weather Cloud Vis
km
Sea
Height
m
Swell
Dir  Spd
kts
Gust
kts
hPa Trend Height
m
Period
s
Dir
19/11:30pm 15.2 SSE 14 18 1022.3 - 0.2 - - 10 - - - -
19/11:00pm 15.2 S 15 18 1022.4 - 0.2 - - 10 - - - -
19/10:30pm 15.4 S 14 19 1022.3 - 0.2 - - 10 - - - -
19/10:00pm 15.7 S 15 18 1022.3 - 0.2 - - 10 - - - -
19/09:30pm 15.9 S 15 21 1022.4 - 0.2 - - 10 - - - -
19/09:00pm 16.0 S 15 20 1021.9 - 0.2 - - 10 - - - -
19/08:30pm 16.3 S 17 21 1021.8 - 0.2 - - 10 - - - -
19/08:00pm 16.1 S 14 18 1021.7 - 0.2 - Partly cloudy 10 - - - -
19/07:30pm 16.3 S 12 18 1021.2 - 0.2 - Partly cloudy 10 - - - -
19/07:00pm 17.3 SSE 16 23 1020.8 - 0.2 - Partly cloudy 10 - - - -
19/06:30pm 17.8 S 14 19 1020.6 - 0.2 - Partly cloudy 10 - - - -
19/06:00pm 17.7 S 13 17 1020.1 - 0.2 - - 10 - - - -
19/05:30pm 18.2 S 14 19 1019.8 - 0.2 - - 10 - - - -
19/05:00pm 19.1 S 13 18 1019.6 - 0.2 - - 10 - - - -
19/04:30pm 19.5 S 16 21 1019.3 - 0.2 - - 10 - - - -
19/04:00pm 19.8 S 16 20 1019.1 - 0.2 - - 10 - - - -
19/03:30pm 19.6 SSW 16 20 1019.1 - 0.2 - - 10 - - - -
19/03:00pm 19.9 S 15 20 1019.2 - 0.2 - - 10 - - - -
19/02:30pm 20.0 S 17 21 1019.2 - 0.2 - Partly cloudy 10 - - - -
19/02:00pm 19.6 S 13 17 1019.4 - 0.2 - Partly cloudy 10 - - - -
19/01:30pm 19.9 S 14 17 1019.7 - 0.2 - Partly cloudy 10 - - - -
19/01:00pm 19.8 S 13 16 1019.8 - 0.2 - - 10 - - - -
19/12:30pm 19.4 S 14 17 1020.2 - 0.2 - - 10 - - - -
19/12:00pm 18.9 S 16 20 1020.6 - 0.2 - - 10 - - - -
19/11:30am 19.8 S 15 19 1020.7 - 0.0 - - 10 - - - -
19/11:00am 18.9 S 16 21 1020.8 - 0.0 - Partly cloudy 10 - - - -
19/10:30am 18.6 S 12 16 1021.0 - 0.0 - - 10 - - - -
19/10:00am 17.5 S 14 19 1021.1 - 0.0 - Partly cloudy 10 - - - -
19/09:30am 17.4 S 8 11 1021.0 - 0.0 - Partly cloudy 10 - - - -
19/09:25am 17.3 S 8 11 1021.0 - 0.0 - Partly cloudy 10 - - - -
19/09:05am 16.8 SSE 9 11 1020.9 - 0.0 - Partly cloudy 2 - - - -
19/09:00am 16.5 SSE 8 11 1020.8 - 1.2 - Mostly cloudy 10 - - - -
19/08:30am 15.9 S 13 18 1020.6 - 1.2 - Partly cloudy 10 - - - -
19/08:00am 16.7 S 13 18 1020.2 - 1.2 - Partly cloudy 10 - - - -
19/07:30am 16.4 SSW 13 17 1019.9 - 1.2 - Partly cloudy 10 - - - -
19/07:00am 14.7 SE 7 11 1019.4 - 1.2 - Cloudy 10 - - - -
19/06:30am 14.9 SSE 7 9 1019.2 - 1.2 - Partly cloudy 10 - - - -
19/06:15am 15.3 S 12 18 1019.1 - 1.2 - Partly cloudy 10 - - - -
19/06:00am 15.3 SSW 6 16 1019.1 - 1.2 - Cloudy 6 - - - -
19/05:56am 15.4 SSW 3 6 1019.1 - 1.0 - Partly cloudy 7 - - - -
19/05:30am 15.2 SE 7 9 1018.6 - 0.4 - Partly cloudy 10 - - - -
19/05:00am 15.2 SSE 6 9 1018.3 - 0.2 - Partly cloudy 10 - - - -
19/04:30am 15.5 S 8 11 1018.3 - 0.2 - Partly cloudy 10 - - - -
19/04:00am 15.3 S 10 13 1018.0 - 0.2 - Partly cloudy 10 - - - -
19/03:47am 15.7 S 13 19 1018.0 - 0.2 - Partly cloudy 10 - - - -
19/03:30am 15.7 S 13 19 1018.0 - 0.2 - Partly cloudy 8 - - - -
19/03:00am 16.7 S 11 14 1018.0 - 0.0 - Cloudy 10 - - - -
19/02:30am 16.4 S 13 16 1017.9 - 0.0 - - 10 - - - -
19/02:00am 16.4 S 14 19 1018.0 - 0.0 - Partly cloudy 10 - - - -
19/01:30am 17.1 SW 14 20 1017.8 - 0.0 - Partly cloudy 10 - - - -
19/01:00am 17.4 SW 8 10 1017.9 - 0.0 - Partly cloudy 10 - - - -
19/12:30am 17.7 WSW 9 15 1018.0 - 0.0 - Partly cloudy 10 - - - -
19/12:00am 16.2 WSW 4 4 1018.0 - 0.0 - - 10 - - - -
 
Date/Time
WST
Temp
°C
Wind Pressure Rain since
9am
mm
Weather Cloud Vis
km
Sea
Height
m
Swell
Dir  Spd
kts
Gust
kts
hPa Trend Height
m
Period
s
Dir
18/11:30pm 17.0 WSW 5 7 1018.0 - 0.0 - - 10 - - - -
18/11:00pm 17.3 WSW 6 7 1018.2 - 0.0 - - 10 - - - -
18/10:30pm 17.6 WSW 7 8 1018.4 - 0.0 - - 10 - - - -
18/10:00pm 17.3 WSW 7 8 1018.5 - 0.0 - - 10 - - - -
18/09:30pm 17.8 WSW 7 8 1018.4 - 0.0 - - 10 - - - -
18/09:00pm 17.9 WSW 7 9 1018.5 - 0.0 - - 10 - - - -
18/08:30pm 18.1 WSW 7 10 1018.5 - 0.0 - Partly cloudy 10 - - - -
18/08:00pm 17.8 SW 7 8 1018.0 - 0.0 - - 10 - - - -
18/07:30pm 18.0 SW 7 9 1017.8 - 0.0 - - 10 - - - -
18/07:00pm 18.4 SW 10 14 1017.4 - 0.0 - - 10 - - - -
18/06:30pm 18.4 SW 9 11 1017.2 - 0.0 - - 10 - - - -
18/06:00pm 18.9 SW 9 11 1016.7 - 0.0 - - 10 - - - -
18/05:30pm 19.8 SW 11 14 1016.3 - 0.0 - - 10 - - - -
18/05:00pm 20.3 SW 11 15 1016.2 - 0.0 - - 10 - - - -
18/04:30pm 20.5 SSW 13 16 1015.9 - 0.0 - - 10 - - - -
18/04:00pm 21.4 SSW 12 16 1015.9 - 0.0 - - 10 - - - -
18/03:30pm 20.7 SSW 10 14 1015.9 - 0.0 - - 10 - - - -
18/03:00pm 20.6 SW 12 15 1015.9 - 0.0 Fine Mostly clear 28 - - - -
18/02:30pm 20.6 SW 11 14 1015.8 - 0.0 - - 10 - - - -
18/02:00pm 20.3 SSW 12 14 1015.8 - 0.0 - - 10 - - - -
18/01:30pm 19.7 SSW 9 12 1016.0 - 0.0 - - 10 - - - -
18/01:00pm 20.9 SSW 12 15 1016.1 - 0.0 - - 10 - - - -
18/12:30pm 20.2 S 12 15 1016.4 - 0.0 - - 10 - - - -
18/12:00pm 20.6 S 13 15 1016.7 - 0.0 - - 10 - - - -
18/11:30am 19.9 S 14 17 1017.2 - 0.0 - - 10 - - - -
18/11:00am 19.1 S 15 18 1017.5 - 0.0 - - 10 - - - -
18/10:30am 19.3 S 16 19 1017.5 - 0.0 - - 10 - - - -
18/10:00am 19.0 S 16 20 1017.6 - 0.0 - - 10 - - - -
18/09:30am 18.5 S 15 19 1017.3 - 0.0 - - 10 - - - -
18/09:00am 18.3 S 14 17 1017.0 - 0.0 Fine Clear 16 - - - -
18/08:30am 17.6 S 15 20 1016.9 - 0.0 - - 10 - - - -
18/08:00am 17.0 S 13 17 1016.6 - 0.0 - - 10 - - - -
18/07:30am 16.1 S 12 16 1016.4 - 0.0 - - 10 - - - -
18/07:00am 15.1 S 11 13 1016.1 - 0.0 - - 10 - - - -
18/06:30am 14.6 S 10 12 1016.1 - 0.0 - - 10 - - - -
18/06:00am 14.3 S 10 11 1016.1 - 0.0 - - 10 - - - -
18/05:30am 14.2 S 9 11 1015.9 - 0.0 - - 10 - - - -
18/05:00am 14.0 S 9 11 1015.8 - 0.0 - - 10 - - - -
18/04:30am 13.7 S 8 10 1015.7 - 0.0 - - 10 - - - -
18/04:00am 13.8 S 8 9 1015.7 - 0.0 - - 10 - - - -
18/03:30am 14.7 S 9 11 1015.8 - 0.0 - - 10 - - - -
18/03:00am 15.1 S 10 12 1015.8 - 0.0 - - 10 - - - -
18/02:30am 14.9 S 9 11 1016.0 - 0.0 - - 10 - - - -
18/02:00am 14.9 S 9 11 1016.1 - 0.0 - - 10 - - - -
18/01:30am 15.0 SSE 9 12 1016.3 - 0.0 - - 10 - - - -

Other Formats:

Comma delimited format used in spreadsheet applications
http://www.bom.gov.au/fwo/IDW60701/IDW60701.94300.axf

JavaScript Object Notation format (JSON) in row-major order
http://www.bom.gov.au/fwo/IDW60701/IDW60701.94300.json